メインページ
METAR-TAF:

METAR-TAF

空港 :

ベルリン, ドイツ

ベルリン・テーゲル空港

緯度: 52-34N, 経度: 013-19E, 海抜: 37m

現時点の気象観測

当レポートは35分前の05:20(UTC)に作成
西/南西の風 5kt
気温 12°C
湿度 88%
気圧 1019 hPa
視程10km以上
1,500メートル以下は雲なし、積乱雲なし

METAR: EDDT 200520Z 25005KT CAVOK 12/10 Q1019 NOSIG

時間: 07:55 (05:55 UTC)

予報

当レポートは55分前の05:00(UTC)に作成
予報は20日の 06時(UTC)から 21日の 06時(UTC)まで有効
西/南西の風 4kt
視程10km以上
1,500メートル以下は雲なし、積乱雲なし
20日の 06時(UTC)から 20日の 08時(UTC)まで徐々に
西の風 9kt
20日の 11時(UTC)から 20日の 15時(UTC)まで一時的に
西の風 15kt、最大25ktの突風を伴う

TAF: EDDT 200500Z 2006/2106 25004KT CAVOK BECMG 2006/2008 26009KT TEMPO 2011/2015 26015G25KT

4,000以上の空港の気象観測と天気予報(METAR報とTAF報)

利用可能な観測所は地図上に黄色い丸と赤い丸で示す。

丸の上にカーソルを重ねると観測所名を参照できる。

次にクリックすると気象観測と天気予報を参照できる。

マップの切り替え:黒色「×」印の緑ボタンをクリックして拡大、「-」印の緑ボタンをクリックして縮小、緑色の三角印をクリックして隣りの地図に切り替え


METAR-TAF: